createdAt,value
2018-04-07T00:00:13.861Z,51.10
2018-04-07T00:02:41.313Z,51.00
2018-04-07T00:05:09.541Z,51.00
2018-04-07T00:07:36.990Z,51.00
2018-04-07T00:10:04.457Z,51.00
2018-04-07T00:12:31.917Z,51.00
2018-04-07T00:14:59.389Z,51.00
2018-04-07T00:17:26.833Z,51.00
2018-04-07T00:19:55.076Z,51.00
2018-04-07T00:22:22.525Z,51.00
2018-04-07T00:24:50.034Z,51.00
2018-04-07T00:27:17.483Z,51.00
2018-04-07T00:29:44.945Z,51.00
2018-04-07T00:32:12.389Z,51.00
2018-04-07T00:34:39.846Z,51.00
2018-04-07T00:37:07.408Z,51.00
2018-04-07T00:39:34.859Z,51.00
2018-04-07T00:42:02.319Z,51.00
2018-04-07T00:44:29.785Z,51.00
2018-04-07T00:46:58.011Z,50.90
2018-04-07T00:49:25.475Z,51.00
2018-04-07T00:51:52.924Z,51.00
2018-04-07T00:54:20.381Z,51.00
2018-04-07T00:56:47.837Z,51.00
2018-04-07T00:59:15.298Z,51.10
2018-04-07T01:01:42.749Z,51.00
2018-04-07T01:04:10.205Z,51.10
2018-04-07T01:06:37.665Z,51.10
2018-04-07T01:09:05.953Z,51.00
2018-04-07T01:11:33.412Z,51.00
2018-04-07T01:14:00.865Z,51.00
2018-04-07T01:16:28.334Z,51.00
2018-04-07T01:18:55.792Z,51.00
2018-04-07T01:21:23.245Z,51.10
2018-04-07T01:23:50.719Z,51.00
2018-04-07T01:26:18.174Z,51.00
2018-04-07T01:28:45.628Z,51.00
2018-04-07T01:31:13.150Z,51.00
2018-04-07T01:33:40.610Z,51.00
2018-04-07T01:36:08.070Z,51.00
2018-04-07T01:38:35.730Z,51.00
2018-04-07T01:41:03.202Z,51.00
2018-04-07T01:43:30.651Z,51.00
2018-04-07T01:45:58.117Z,51.00
2018-04-07T01:48:25.574Z,51.00
2018-04-07T01:50:53.035Z,50.90
2018-04-07T01:53:20.483Z,51.00
2018-04-07T01:55:48.017Z,51.00
2018-04-07T01:58:15.466Z,51.00
2018-04-07T02:00:42.917Z,51.00
2018-04-07T02:03:10.360Z,51.00
2018-04-07T02:05:37.829Z,51.00
2018-04-07T02:08:05.375Z,51.00
2018-04-07T02:10:32.795Z,51.00
2018-04-07T02:13:00.246Z,51.50
2018-04-07T02:15:28.061Z,51.00
2018-04-07T02:17:55.518Z,51.00
2018-04-07T02:20:22.973Z,51.60
2018-04-07T02:22:50.429Z,51.00
2018-04-07T02:25:17.901Z,51.00
2018-04-07T02:27:45.345Z,51.00
2018-04-07T02:30:12.810Z,51.00
2018-04-07T02:32:40.282Z,51.00
2018-04-07T02:35:07.746Z,51.60
2018-04-07T02:37:35.198Z,51.00
2018-04-07T02:40:02.757Z,51.00
2018-04-07T02:42:30.236Z,51.00
2018-04-07T02:44:57.672Z,51.00
2018-04-07T02:47:25.212Z,51.00
2018-04-07T02:49:52.679Z,51.00
2018-04-07T02:52:20.132Z,51.00
2018-04-07T02:54:47.595Z,51.00
2018-04-07T02:57:15.058Z,51.00
2018-04-07T02:59:42.525Z,51.00
2018-04-07T03:02:10.165Z,51.00
2018-04-07T03:04:37.726Z,51.00
2018-04-07T03:07:05.190Z,51.60
2018-04-07T03:09:32.648Z,51.00
2018-04-07T03:12:00.115Z,51.00
2018-04-07T03:14:27.565Z,51.00
2018-04-07T03:16:55.025Z,50.90
2018-04-07T03:19:22.500Z,50.90
2018-04-07T03:21:50.724Z,51.00
2018-04-07T03:24:18.195Z,51.00
2018-04-07T03:26:45.659Z,51.00
2018-04-07T03:29:13.113Z,51.00
2018-04-07T03:31:40.575Z,51.00
2018-04-07T03:34:08.121Z,51.00
2018-04-07T03:36:35.581Z,51.00
2018-04-07T03:39:03.039Z,50.90
2018-04-07T03:41:30.503Z,51.00
2018-04-07T03:43:57.949Z,51.00
2018-04-07T03:46:25.408Z,51.60
2018-04-07T03:48:52.862Z,51.00
2018-04-07T03:51:20.322Z,51.00
2018-04-07T03:53:47.782Z,51.00
2018-04-07T03:56:15.233Z,51.00
2018-04-07T03:58:42.697Z,50.90
2018-04-07T04:01:10.921Z,51.00
2018-04-07T04:03:38.377Z,50.90
2018-04-07T04:06:05.913Z,50.90
2018-04-07T04:08:33.372Z,50.80
2018-04-07T04:11:00.830Z,50.80
2018-04-07T04:13:28.340Z,50.80
2018-04-07T04:15:55.799Z,50.90
2018-04-07T04:18:23.253Z,50.90
2018-04-07T04:20:50.722Z,50.90
2018-04-07T04:23:18.173Z,50.90
2018-04-07T04:25:45.632Z,50.80
2018-04-07T04:28:13.826Z,50.90
2018-04-07T04:30:42.060Z,50.90
2018-04-07T04:33:09.511Z,50.90
2018-04-07T04:35:36.964Z,50.80
2018-04-07T04:38:04.413Z,50.80
2018-04-07T04:40:31.868Z,50.80
2018-04-07T04:42:59.345Z,50.80
2018-04-07T04:45:26.825Z,50.80
2018-04-07T04:47:54.368Z,50.80
2018-04-07T04:50:21.845Z,50.80
2018-04-07T04:52:50.073Z,50.90
2018-04-07T04:55:17.521Z,50.70
2018-04-07T04:57:44.982Z,50.80
2018-04-07T05:00:12.433Z,50.70
2018-04-07T05:02:39.889Z,50.80
2018-04-07T05:05:07.345Z,50.80
2018-04-07T05:07:34.830Z,50.80
2018-04-07T05:10:02.389Z,50.70
2018-04-07T05:12:29.847Z,50.70
2018-04-07T05:14:57.305Z,50.70
2018-04-07T05:17:24.762Z,50.70
2018-04-07T05:19:52.222Z,50.70
2018-04-07T05:22:19.677Z,50.70
2018-04-07T05:24:47.127Z,50.70
2018-04-07T05:27:14.592Z,50.70
2018-04-07T05:29:42.045Z,50.80
2018-04-07T05:32:09.601Z,50.80
2018-04-07T05:34:37.158Z,50.80
2018-04-07T05:37:04.617Z,50.70
2018-04-07T05:39:32.158Z,50.80
2018-04-07T05:41:59.734Z,50.70
2018-04-07T05:44:27.194Z,50.70
2018-04-07T05:46:54.655Z,50.70
2018-04-07T05:49:22.196Z,50.70
2018-04-07T05:51:49.663Z,51.50
2018-04-07T05:54:17.125Z,50.70
2018-04-07T05:56:45.345Z,51.10
2018-04-07T05:59:12.839Z,50.70
2018-04-07T06:01:41.803Z,50.80
2018-04-07T06:04:09.249Z,50.70
2018-04-07T06:06:36.736Z,50.70
2018-04-07T06:09:04.187Z,50.70
2018-04-07T06:11:31.761Z,50.70
2018-04-07T06:13:59.214Z,50.70
2018-04-07T06:16:26.683Z,50.70
2018-04-07T06:18:54.230Z,50.70
2018-04-07T06:21:21.685Z,50.70
2018-04-07T06:23:49.241Z,50.70
2018-04-07T06:26:18.221Z,50.70
2018-04-07T06:28:45.718Z,50.70
2018-04-07T06:31:13.131Z,50.60
2018-04-07T06:33:40.585Z,50.70
2018-04-07T06:36:08.037Z,50.70
2018-04-07T06:38:35.501Z,50.60
2018-04-07T06:41:02.965Z,50.70
2018-04-07T06:43:30.422Z,50.70
2018-04-07T06:45:57.876Z,50.70
2018-04-07T06:48:25.340Z,50.60
2018-04-07T06:50:52.798Z,50.60
2018-04-07T06:53:20.279Z,50.60
2018-04-07T06:55:48.502Z,50.70
2018-04-07T06:58:15.957Z,50.60
2018-04-07T07:00:43.414Z,50.60
2018-04-07T07:03:10.869Z,50.60
2018-04-07T07:05:38.345Z,50.60
2018-04-07T07:08:05.797Z,50.60
2018-04-07T07:10:33.258Z,50.60
2018-04-07T07:13:00.722Z,50.50
2018-04-07T07:15:28.174Z,50.50
2018-04-07T07:17:55.633Z,50.50
2018-04-07T07:20:23.085Z,50.60
2018-04-07T07:22:50.544Z,50.60
2018-04-07T07:25:17.993Z,50.50
2018-04-07T07:27:45.457Z,50.60
2018-04-07T07:30:12.905Z,50.50
2018-04-07T07:32:40.462Z,50.50
2018-04-07T07:35:08.014Z,50.50
2018-04-07T07:37:35.473Z,50.50
2018-04-07T07:40:02.929Z,50.60
2018-04-07T07:42:30.496Z,50.60
2018-04-07T07:44:57.941Z,50.50
2018-04-07T07:47:25.444Z,50.50
2018-04-07T07:49:52.853Z,50.50
2018-04-07T07:52:20.416Z,50.50
2018-04-07T07:54:47.869Z,50.50
2018-04-07T07:57:15.438Z,50.50
2018-04-07T07:59:42.884Z,50.50
2018-04-07T08:02:10.346Z,51.20
2018-04-07T08:04:37.797Z,50.50
2018-04-07T08:07:05.360Z,50.50
2018-04-07T08:09:32.820Z,50.50
2018-04-07T08:12:00.277Z,50.50
2018-04-07T08:14:27.742Z,50.50
2018-04-07T08:16:55.194Z,50.50
2018-04-07T08:19:22.656Z,50.50
2018-04-07T08:21:50.105Z,50.50
2018-04-07T08:24:17.563Z,50.50
2018-04-07T08:26:45.010Z,50.50
2018-04-07T08:29:12.471Z,50.50
2018-04-07T08:31:39.930Z,50.50
2018-04-07T08:34:07.389Z,50.50
2018-04-07T08:36:34.846Z,50.50
2018-04-07T08:39:02.312Z,50.50
2018-04-07T08:41:29.754Z,50.50
2018-04-07T08:43:57.301Z,50.50
2018-04-07T08:46:24.750Z,50.50
2018-04-07T08:48:52.289Z,50.50
2018-04-07T08:51:19.661Z,50.50
2018-04-07T08:53:47.125Z,50.40
2018-04-07T08:56:14.595Z,50.40
2018-04-07T08:58:42.052Z,51.10
2018-04-07T09:01:09.506Z,50.50
2018-04-07T09:03:36.966Z,50.50
2018-04-07T09:06:04.413Z,50.40
2018-04-07T09:08:31.961Z,50.40
2018-04-07T09:10:59.419Z,50.50
2018-04-07T09:13:26.881Z,50.50
2018-04-07T09:15:54.349Z,50.50
2018-04-07T09:18:21.805Z,50.50
2018-04-07T09:20:49.352Z,50.50
2018-04-07T09:23:16.814Z,50.50
2018-04-07T09:25:44.392Z,50.50
2018-04-07T09:28:11.827Z,50.50
2018-04-07T09:30:39.277Z,50.50
2018-04-07T09:33:06.743Z,50.50
2018-04-07T09:35:34.963Z,50.50
2018-04-07T09:38:02.423Z,50.50
2018-04-07T09:40:29.881Z,50.40
2018-04-07T09:42:57.350Z,50.40
2018-04-07T09:45:24.811Z,50.50
2018-04-07T09:47:52.254Z,50.50
2018-04-07T09:50:19.746Z,50.40
2018-04-07T09:52:47.186Z,50.50
2018-04-07T09:55:14.646Z,50.50
2018-04-07T09:57:42.093Z,50.50
2018-04-07T10:00:09.553Z,50.50
2018-04-07T10:02:37.007Z,50.50
2018-04-07T10:05:04.483Z,50.50
2018-04-07T10:07:31.945Z,50.50
2018-04-07T10:09:59.415Z,50.50
2018-04-07T10:12:27.632Z,50.50
2018-04-07T10:14:55.089Z,50.50
2018-04-07T10:17:22.545Z,50.50
2018-04-07T10:19:50.025Z,50.50
2018-04-07T10:22:17.473Z,50.50
2018-04-07T10:24:44.934Z,50.50
2018-04-07T10:27:12.389Z,50.50
2018-04-07T10:29:39.846Z,50.50
2018-04-07T10:32:07.309Z,50.50
2018-04-07T10:34:34.774Z,50.50
2018-04-07T10:37:02.226Z,50.50
2018-04-07T10:39:29.781Z,50.50
2018-04-07T10:41:57.237Z,50.40
2018-04-07T10:44:24.710Z,50.50
2018-04-07T10:46:52.430Z,50.40
2018-04-07T10:49:19.886Z,50.50
2018-04-07T10:51:47.371Z,50.40
2018-04-07T10:54:14.835Z,50.40
2018-04-07T10:56:42.295Z,50.40
2018-04-07T10:59:09.749Z,50.40
2018-04-07T11:01:37.202Z,50.40
2018-04-07T11:04:04.662Z,50.40
2018-04-07T11:06:32.121Z,50.40
2018-04-07T11:08:59.578Z,51.00
2018-04-07T11:11:27.049Z,50.40
2018-04-07T11:13:54.480Z,50.40
2018-04-07T11:16:21.939Z,50.40
2018-04-07T11:18:49.406Z,50.40
2018-04-07T11:21:16.851Z,50.40
2018-04-07T11:23:44.305Z,50.40
2018-04-07T11:26:11.765Z,50.40
2018-04-07T11:28:39.223Z,50.40
2018-04-07T11:31:06.678Z,50.40
2018-04-07T11:33:34.129Z,50.40
2018-04-07T11:36:01.605Z,50.40
2018-04-07T11:38:29.046Z,50.40
2018-04-07T11:40:56.509Z,51.10
2018-04-07T11:43:24.057Z,50.40
2018-04-07T11:45:51.523Z,50.40
2018-04-07T11:48:18.973Z,50.50
2018-04-07T11:50:46.426Z,50.50
2018-04-07T11:53:13.881Z,50.50
2018-04-07T11:55:41.351Z,50.50
2018-04-07T11:58:09.562Z,51.10
2018-04-07T12:00:37.029Z,50.40
2018-04-07T12:03:04.789Z,50.40
2018-04-07T12:05:32.249Z,50.40
2018-04-07T12:07:59.710Z,50.50
2018-04-07T12:10:27.170Z,50.50
2018-04-07T12:12:54.646Z,50.50
2018-04-07T12:15:22.110Z,50.50
2018-04-07T12:17:49.570Z,50.40
2018-04-07T12:20:17.029Z,50.40
2018-04-07T12:22:44.482Z,50.40
2018-04-07T12:25:11.942Z,50.50
2018-04-07T12:27:39.398Z,50.50
2018-04-07T12:30:06.870Z,50.50
2018-04-07T12:32:35.109Z,50.40
2018-04-07T12:35:02.635Z,50.50
2018-04-07T12:37:30.082Z,50.50
2018-04-07T12:39:57.549Z,50.50
2018-04-07T12:42:25.004Z,50.50
2018-04-07T12:44:52.469Z,50.50
2018-04-07T12:47:20.225Z,50.50
2018-04-07T12:49:47.681Z,51.20
2018-04-07T12:52:15.134Z,50.60
2018-04-07T12:54:42.604Z,50.60
2018-04-07T12:57:10.060Z,50.60
2018-04-07T12:59:37.533Z,50.60
2018-04-07T13:02:04.991Z,50.50
2018-04-07T13:04:32.449Z,50.60
2018-04-07T13:06:59.925Z,50.70
2018-04-07T13:09:27.364Z,50.70
2018-04-07T13:11:54.926Z,50.70
2018-04-07T13:14:22.386Z,50.70
2018-04-07T13:16:49.851Z,50.70
2018-04-07T13:19:17.306Z,50.70
2018-04-07T13:21:44.770Z,50.70
2018-04-07T13:24:12.991Z,50.70
2018-04-07T13:26:40.458Z,50.70
2018-04-07T13:29:07.902Z,50.70
2018-04-07T13:31:35.361Z,50.70
2018-04-07T13:34:02.810Z,50.70
2018-04-07T13:36:30.469Z,50.70
2018-04-07T13:38:57.925Z,50.80
2018-04-07T13:41:25.385Z,50.70
2018-04-07T13:43:52.836Z,50.80
2018-04-07T13:46:20.303Z,50.70
2018-04-07T13:48:47.749Z,50.70
2018-04-07T13:51:15.213Z,50.70
2018-04-07T13:53:42.671Z,50.70
2018-04-07T13:56:10.151Z,50.80
2018-04-07T13:58:37.610Z,50.70
2018-04-07T14:01:05.065Z,50.70
2018-04-07T14:03:32.533Z,50.80
2018-04-07T14:06:00.082Z,50.80
2018-04-07T14:08:27.534Z,50.80
2018-04-07T14:10:54.998Z,50.80
2018-04-07T14:13:22.447Z,50.80
2018-04-07T14:15:49.911Z,50.80
2018-04-07T14:18:17.364Z,50.80
2018-04-07T14:20:45.586Z,50.80
2018-04-07T14:23:13.038Z,50.80
2018-04-07T14:25:40.502Z,50.70
2018-04-07T14:28:07.954Z,50.70
2018-04-07T14:30:35.411Z,50.80
2018-04-07T14:33:02.872Z,50.80
2018-04-07T14:35:30.324Z,50.80
2018-04-07T14:37:58.806Z,50.80
2018-04-07T14:40:26.311Z,50.80
2018-04-07T14:42:54.034Z,50.90
2018-04-07T14:45:21.486Z,50.90
2018-04-07T14:47:48.950Z,50.80
2018-04-07T14:50:16.401Z,51.50
2018-04-07T14:52:43.868Z,50.80
2018-04-07T14:55:11.322Z,50.80
2018-04-07T14:57:38.778Z,50.80
2018-04-07T15:00:06.234Z,50.80
2018-04-07T15:02:33.693Z,50.80
2018-04-07T15:05:01.178Z,50.80
2018-04-07T15:07:28.649Z,50.80
2018-04-07T15:09:56.094Z,50.80
2018-04-07T15:12:23.569Z,50.80
2018-04-07T15:14:51.785Z,50.90
2018-04-07T15:17:19.250Z,50.90
2018-04-07T15:19:46.701Z,50.90
2018-04-07T15:22:14.181Z,50.90
2018-04-07T15:24:41.637Z,50.90
2018-04-07T15:27:09.106Z,50.80
2018-04-07T15:29:36.563Z,50.90
2018-04-07T15:32:04.025Z,50.90
2018-04-07T15:34:32.300Z,50.80
2018-04-07T15:36:59.763Z,50.90
2018-04-07T15:39:27.214Z,50.90
2018-04-07T15:41:54.669Z,50.90
2018-04-07T15:44:22.127Z,50.90
2018-04-07T15:46:49.581Z,50.90
2018-04-07T15:49:17.802Z,51.70
2018-04-07T15:51:45.257Z,50.90
2018-04-07T15:54:12.714Z,50.90
2018-04-07T15:56:40.200Z,50.90
2018-04-07T15:59:07.624Z,50.90
2018-04-07T16:01:35.086Z,51.00
2018-04-07T16:04:02.954Z,51.00
2018-04-07T16:06:30.410Z,51.00
2018-04-07T16:08:57.864Z,51.00
2018-04-07T16:11:25.316Z,51.00
2018-04-07T16:13:52.822Z,51.00
2018-04-07T16:16:20.229Z,51.00
2018-04-07T16:18:47.699Z,51.00
2018-04-07T16:21:15.147Z,51.00
2018-04-07T16:23:42.617Z,51.00
2018-04-07T16:26:10.066Z,51.00
2018-04-07T16:28:37.526Z,51.00
2018-04-07T16:31:04.986Z,51.00
2018-04-07T16:33:32.444Z,51.00
2018-04-07T16:35:59.897Z,51.00
2018-04-07T16:38:27.361Z,51.00
2018-04-07T16:40:54.819Z,51.00
2018-04-07T16:43:22.278Z,51.00
2018-04-07T16:45:49.734Z,51.00
2018-04-07T16:48:17.206Z,51.00
2018-04-07T16:50:44.672Z,51.00
2018-04-07T16:53:12.127Z,51.10
2018-04-07T16:55:40.346Z,51.10
2018-04-07T16:58:07.806Z,51.10
2018-04-07T17:00:35.254Z,51.70
2018-04-07T17:03:02.713Z,51.20
2018-04-07T17:05:30.174Z,51.80
2018-04-07T17:07:57.642Z,51.20
2018-04-07T17:10:25.089Z,51.20
2018-04-07T17:12:52.553Z,51.20
2018-04-07T17:15:20.013Z,51.20
2018-04-07T17:17:47.467Z,51.20
2018-04-07T17:20:14.922Z,51.10
2018-04-07T17:22:42.394Z,51.20
2018-04-07T17:25:09.851Z,51.10
2018-04-07T17:27:37.309Z,51.10
2018-04-07T17:30:04.762Z,51.10
2018-04-07T17:32:32.220Z,51.20
2018-04-07T17:34:59.665Z,51.10
2018-04-07T17:37:27.247Z,51.10
2018-04-07T17:39:54.702Z,51.10
2018-04-07T17:42:22.178Z,51.20
2018-04-07T17:44:50.402Z,51.10
2018-04-07T17:47:17.875Z,51.00
2018-04-07T17:49:45.330Z,51.00
2018-04-07T17:52:12.779Z,51.00
2018-04-07T17:54:40.239Z,51.10
2018-04-07T17:57:07.698Z,51.00
2018-04-07T17:59:35.157Z,51.00
2018-04-07T18:02:03.385Z,51.00
2018-04-07T18:04:30.837Z,51.10
2018-04-07T18:06:58.291Z,51.00
2018-04-07T18:09:25.803Z,51.00
2018-04-07T18:11:53.411Z,51.00
2018-04-07T18:14:20.890Z,51.00
2018-04-07T18:16:48.334Z,51.10
2018-04-07T18:19:15.799Z,51.00
2018-04-07T18:21:43.254Z,51.10
2018-04-07T18:24:10.721Z,51.10
2018-04-07T18:26:38.165Z,50.90
2018-04-07T18:29:05.621Z,51.00
2018-04-07T18:31:33.081Z,51.10
2018-04-07T18:34:00.537Z,51.10
2018-04-07T18:36:27.993Z,51.10
2018-04-07T18:38:55.453Z,51.00
2018-04-07T18:41:22.906Z,51.10
2018-04-07T18:43:50.373Z,51.10
2018-04-07T18:46:17.838Z,50.90
2018-04-07T18:48:45.305Z,51.00
2018-04-07T18:51:12.766Z,50.90
2018-04-07T18:53:40.221Z,51.00
2018-04-07T18:56:07.673Z,50.90
2018-04-07T18:58:35.142Z,50.90
2018-04-07T19:01:02.596Z,51.00
2018-04-07T19:03:30.053Z,50.90
2018-04-07T19:05:57.501Z,51.00
2018-04-07T19:08:24.963Z,50.90
2018-04-07T19:10:52.417Z,51.00
2018-04-07T19:13:19.877Z,51.00
2018-04-07T19:15:47.325Z,51.10
2018-04-07T19:18:14.785Z,51.00
2018-04-07T19:20:42.237Z,51.00
2018-04-07T19:23:09.698Z,51.00
2018-04-07T19:25:37.150Z,51.00
2018-04-07T19:28:04.609Z,51.00
2018-04-07T19:30:32.073Z,51.00
2018-04-07T19:33:00.292Z,51.80
2018-04-07T19:35:27.747Z,51.10
2018-04-07T19:37:55.201Z,51.10
2018-04-07T19:40:22.662Z,51.10
2018-04-07T19:42:50.114Z,51.10
2018-04-07T19:45:17.588Z,51.00
2018-04-07T19:47:45.034Z,51.10
2018-04-07T19:50:12.498Z,51.10
2018-04-07T19:52:39.955Z,51.10
2018-04-07T19:55:07.417Z,51.10
2018-04-07T19:57:34.871Z,51.10
2018-04-07T20:00:02.339Z,51.10
2018-04-07T20:02:29.784Z,51.10
2018-04-07T20:04:57.253Z,51.10
2018-04-07T20:07:24.701Z,51.10
2018-04-07T20:09:52.159Z,51.10
2018-04-07T20:12:19.606Z,51.10
2018-04-07T20:14:47.065Z,51.10
2018-04-07T20:17:14.526Z,51.10
2018-04-07T20:19:41.989Z,51.10
2018-04-07T20:22:09.450Z,51.10
2018-04-07T20:24:36.909Z,51.10
2018-04-07T20:27:04.366Z,51.00
2018-04-07T20:29:31.833Z,51.00
2018-04-07T20:31:59.662Z,51.00
2018-04-07T20:34:27.105Z,51.00
2018-04-07T20:36:54.565Z,51.00
2018-04-07T20:39:22.028Z,51.00
2018-04-07T20:41:49.478Z,51.00
2018-04-07T20:47:11.594Z,50.90
2018-04-07T20:49:39.817Z,51.00
2018-04-07T20:52:07.269Z,51.00
2018-04-07T20:54:34.724Z,51.10
2018-04-07T20:57:02.181Z,51.00
2018-04-07T20:59:29.643Z,50.90
2018-04-07T21:01:57.099Z,51.00
2018-04-07T21:04:24.555Z,51.00
2018-04-07T21:06:52.010Z,51.00
2018-04-07T21:09:19.474Z,51.00
2018-04-07T21:11:46.921Z,51.00
2018-04-07T21:14:14.384Z,51.00
2018-04-07T21:16:41.940Z,51.00
2018-04-07T21:19:09.426Z,51.00
2018-04-07T21:21:36.852Z,51.00
2018-04-07T21:24:04.302Z,51.00
2018-04-07T21:26:31.777Z,51.00
2018-04-07T21:28:59.230Z,51.00
2018-04-07T21:31:26.781Z,51.00
2018-04-07T21:33:54.233Z,51.00
2018-04-07T21:36:21.694Z,51.00
2018-04-07T21:38:49.149Z,50.90
2018-04-07T21:41:16.614Z,51.00
2018-04-07T21:43:44.057Z,51.00
2018-04-07T21:46:11.620Z,51.00
2018-04-07T21:48:39.086Z,51.00
2018-04-07T21:51:06.730Z,51.00
2018-04-07T21:53:34.181Z,51.00
2018-04-07T21:56:01.649Z,50.90
2018-04-07T21:58:29.173Z,51.00
2018-04-07T22:00:56.727Z,50.90
2018-04-07T22:03:24.237Z,51.60
2018-04-07T22:05:51.807Z,50.90
2018-04-07T22:08:19.250Z,50.90
2018-04-07T22:10:46.705Z,50.90
2018-04-07T22:13:14.168Z,50.90
2018-04-07T22:15:41.622Z,50.90
2018-04-07T22:18:09.091Z,50.90
2018-04-07T22:20:37.319Z,51.00
2018-04-07T22:23:04.782Z,51.00
2018-04-07T22:25:32.242Z,50.90
2018-04-07T22:27:59.698Z,50.90
2018-04-07T22:30:27.158Z,50.90
2018-04-07T22:32:54.613Z,51.00
2018-04-07T22:35:22.088Z,50.90
2018-04-07T22:37:49.545Z,51.00
2018-04-07T22:40:17.011Z,51.60
2018-04-07T22:42:45.240Z,50.90
2018-04-07T22:45:12.702Z,50.90
2018-04-07T22:47:40.200Z,50.90
2018-04-07T22:50:07.615Z,50.90
2018-04-07T22:52:35.081Z,50.90
2018-04-07T22:55:02.638Z,51.00
2018-04-07T22:57:30.097Z,51.00
2018-04-07T22:59:57.559Z,51.00
2018-04-07T23:02:25.010Z,50.90
2018-04-07T23:04:52.460Z,51.00
2018-04-07T23:07:19.925Z,51.00
2018-04-07T23:09:47.478Z,51.00
2018-04-07T23:12:14.942Z,51.00
2018-04-07T23:14:42.397Z,51.00
2018-04-07T23:17:09.854Z,51.00
2018-04-07T23:19:37.310Z,51.00
2018-04-07T23:22:04.769Z,50.90
2018-04-07T23:24:32.224Z,51.10
2018-04-07T23:26:59.674Z,50.90
2018-04-07T23:29:27.133Z,51.10
2018-04-07T23:31:54.601Z,51.00
2018-04-07T23:34:22.064Z,51.10
2018-04-07T23:36:50.290Z,51.00
2018-04-07T23:39:17.742Z,51.00
2018-04-07T23:41:45.205Z,51.00
2018-04-07T23:44:12.657Z,51.10
2018-04-07T23:46:40.114Z,51.00
2018-04-07T23:49:07.595Z,51.00
2018-04-07T23:51:35.054Z,51.00
2018-04-07T23:54:02.515Z,51.00
2018-04-07T23:56:29.977Z,51.00
2018-04-07T23:58:57.429Z,51.10
